Terminal Aerodrome Forecast
Issued by NWS

Home | Current Version | Previous Version | Text Only | Print | Product List | Glossary On
Versions: 1 2 3 4 5 6 7 8 9 10 11 12 13 14 15 16 17 18 19 20
000
FTUS44 KSJT 021700
TAFSOA
TAF
KSOA 021720Z 0218/0318 16010G16KT P6SM SCT250
     FM030200 16005KT P6SM SCT050
     FM031100 18004KT P6SM OVC015
     FM031400 17011G17KT P6SM SKC=

USA.gov is the U.S. government's official web portal to all federal, state and local government web resources and services.